createdAt,value
2022-09-06T00:01:27.373Z,99.90
2022-09-06T00:03:58.244Z,99.90
2022-09-06T00:06:27.677Z,99.90
2022-09-06T00:08:56.956Z,99.90
2022-09-06T00:11:25.905Z,99.90
2022-09-06T00:13:54.744Z,99.90
2022-09-06T00:16:30.134Z,99.90
2022-09-06T00:19:00.976Z,99.90
2022-09-06T00:21:32.289Z,99.90
2022-09-06T00:24:01.320Z,99.90
2022-09-06T00:26:30.396Z,99.90
2022-09-06T00:28:59.663Z,99.90
2022-09-06T00:31:29.343Z,99.90
2022-09-06T00:34:00.220Z,99.90
2022-09-06T00:36:29.548Z,99.90
2022-09-06T00:38:58.913Z,99.90
2022-09-06T00:41:28.248Z,99.90
2022-09-06T00:43:57.327Z,99.90
2022-09-06T00:46:28.766Z,99.90
2022-09-06T00:49:05.036Z,99.90
2022-09-06T00:51:36.008Z,99.90
2022-09-06T00:54:06.631Z,99.90
2022-09-06T00:56:39.997Z,99.90
2022-09-06T00:59:09.908Z,99.90
2022-09-06T01:01:39.369Z,99.90
2022-09-06T01:04:10.432Z,99.90
2022-09-06T01:06:49.935Z,99.90
2022-09-06T01:09:30.315Z,99.90
2022-09-06T01:12:13.968Z,99.90
2022-09-06T01:14:53.687Z,99.90
2022-09-06T01:17:36.451Z,99.90
2022-09-06T01:20:47.071Z,99.90
2022-09-06T01:23:52.939Z,99.90
2022-09-06T01:27:01.427Z,99.90
2022-09-06T01:29:38.191Z,99.90
2022-09-06T01:32:14.287Z,99.90
2022-09-06T01:34:50.299Z,99.90
2022-09-06T01:37:22.071Z,99.90
2022-09-06T01:39:51.433Z,99.90
2022-09-06T01:42:23.843Z,99.90
2022-09-06T01:45:00.502Z,99.90
2022-09-06T01:47:41.106Z,99.90
2022-09-06T01:50:41.282Z,99.90
2022-09-06T01:53:24.156Z,99.90
2022-09-06T01:56:01.115Z,99.90
2022-09-06T01:58:48.830Z,99.90
2022-09-06T02:01:26.256Z,99.90
2022-09-06T02:04:02.366Z,99.90
2022-09-06T02:06:34.914Z,99.90
2022-09-06T02:09:08.470Z,99.90
2022-09-06T02:11:44.463Z,99.90
2022-09-06T02:14:17.608Z,99.90
2022-09-06T02:16:52.827Z,99.90
2022-09-06T02:19:26.802Z,99.90
2022-09-06T02:21:58.573Z,99.90
2022-09-06T02:24:32.929Z,99.90
2022-09-06T02:27:02.231Z,99.90
2022-09-06T02:29:31.413Z,99.90
2022-09-06T02:32:06.084Z,99.90
2022-09-06T02:34:38.589Z,99.90
2022-09-06T02:37:08.537Z,99.90
2022-09-06T02:39:37.511Z,99.90
2022-09-06T02:42:08.227Z,99.90
2022-09-06T02:44:37.486Z,99.90
2022-09-06T02:47:08.729Z,99.90
2022-09-06T02:49:37.698Z,99.90
2022-09-06T02:52:06.837Z,99.90
2022-09-06T02:54:35.621Z,99.90
2022-09-06T02:57:04.865Z,99.90
2022-09-06T02:59:34.363Z,99.90
2022-09-06T03:02:03.478Z,99.90
2022-09-06T03:04:34.517Z,99.90
2022-09-06T03:07:03.897Z,99.90
2022-09-06T03:09:33.014Z,99.90
2022-09-06T03:12:02.003Z,99.90
2022-09-06T03:14:30.696Z,99.90
2022-09-06T03:16:59.804Z,99.90
2022-09-06T03:19:28.873Z,99.90
2022-09-06T03:21:59.700Z,99.90
2022-09-06T03:24:28.930Z,99.90
2022-09-06T03:26:57.965Z,99.90
2022-09-06T03:29:26.973Z,99.90
2022-09-06T03:31:55.899Z,99.90
2022-09-06T03:34:25.248Z,99.90
2022-09-06T03:36:54.325Z,99.90
2022-09-06T03:39:25.501Z,99.90
2022-09-06T03:41:54.466Z,99.90
2022-09-06T03:44:23.502Z,99.90
2022-09-06T03:46:53.056Z,99.90
2022-09-06T03:49:22.824Z,99.90
2022-09-06T03:51:51.961Z,99.90
2022-09-06T03:54:20.917Z,99.90
2022-09-06T03:56:51.748Z,99.90
2022-09-06T03:59:20.556Z,99.90
2022-09-06T04:01:50.048Z,99.90
2022-09-06T04:04:19.229Z,99.90
2022-09-06T04:06:49.004Z,99.90
2022-09-06T04:09:18.081Z,99.90
2022-09-06T04:11:47.388Z,99.90
2022-09-06T04:14:18.581Z,99.90
2022-09-06T04:16:47.972Z,99.90
2022-09-06T04:19:17.112Z,99.90
2022-09-06T04:21:45.952Z,99.90
2022-09-06T04:24:15.056Z,99.90
2022-09-06T04:26:44.104Z,99.90
2022-09-06T04:29:13.487Z,99.90
2022-09-06T04:31:44.587Z,99.90
2022-09-06T04:34:13.388Z,99.90
2022-09-06T04:36:46.493Z,99.90
2022-09-06T04:39:17.526Z,99.90
2022-09-06T04:41:46.853Z,99.90
2022-09-06T04:44:15.939Z,99.90
2022-09-06T04:46:46.508Z,99.90
2022-09-06T04:49:18.217Z,99.90
2022-09-06T04:51:47.207Z,99.90
2022-09-06T04:54:16.483Z,99.90
2022-09-06T04:56:45.855Z,99.90
2022-09-06T04:59:14.851Z,99.90
2022-09-06T05:01:43.911Z,99.90
2022-09-06T05:04:14.391Z,99.90
2022-09-06T05:06:43.552Z,99.90
2022-09-06T05:09:12.803Z,99.90
2022-09-06T05:11:41.706Z,99.90
2022-09-06T05:14:10.459Z,99.90
2022-09-06T05:16:39.843Z,99.90
2022-09-06T05:19:08.829Z,99.90
2022-09-06T05:21:39.851Z,99.90
2022-09-06T05:24:08.980Z,99.90
2022-09-06T05:26:38.116Z,99.90
2022-09-06T05:29:06.960Z,99.90
2022-09-06T05:31:37.470Z,99.90
2022-09-06T05:34:06.963Z,99.90
2022-09-06T05:36:36.011Z,99.90
2022-09-06T05:39:09.912Z,99.90
2022-09-06T05:41:40.447Z,99.90
2022-09-06T05:44:09.430Z,99.90
2022-09-06T05:46:45.418Z,99.90
2022-09-06T05:49:15.298Z,99.90
2022-09-06T05:51:44.386Z,99.90
2022-09-06T05:54:15.513Z,99.90
2022-09-06T05:56:44.739Z,99.90
2022-09-06T05:59:13.816Z,99.90
2022-09-06T06:01:50.505Z,99.90
2022-09-06T06:04:20.466Z,99.90
2022-09-06T06:06:50.449Z,99.90
2022-09-06T06:09:21.105Z,99.90
2022-09-06T06:11:50.398Z,99.90
2022-09-06T06:14:19.397Z,99.90
2022-09-06T06:16:48.583Z,99.90
2022-09-06T06:19:17.461Z,99.90
2022-09-06T06:21:46.721Z,99.90
2022-09-06T06:24:15.653Z,99.90
2022-09-06T06:26:46.933Z,99.90
2022-09-06T06:29:16.205Z,99.90
2022-09-06T06:31:45.073Z,99.90
2022-09-06T06:34:14.452Z,99.90
2022-09-06T06:36:44.748Z,99.90
2022-09-06T06:39:13.910Z,99.90
2022-09-06T06:41:42.674Z,99.90
2022-09-06T06:44:36.152Z,99.90
2022-09-06T06:47:05.388Z,99.90
2022-09-06T06:49:34.300Z,99.90
2022-09-06T06:52:03.512Z,99.90
2022-09-06T06:54:32.363Z,99.90
2022-09-06T06:57:01.500Z,99.90
2022-09-06T06:59:30.517Z,99.90
2022-09-06T07:02:01.575Z,99.90
2022-09-06T07:04:30.751Z,99.90
2022-09-06T07:12:38.615Z,99.90
2022-09-06T07:15:08.569Z,99.90
2022-09-06T07:17:39.183Z,99.90
2022-09-06T07:22:44.190Z,99.90
2022-09-06T07:25:17.610Z,99.90
2022-09-06T07:27:48.958Z,99.90
2022-09-06T07:30:20.194Z,99.90
2022-09-06T07:32:50.844Z,99.90
2022-09-06T07:35:20.896Z,99.90
2022-09-06T07:37:57.579Z,99.90
2022-09-06T07:40:27.176Z,99.90
2022-09-06T07:42:59.184Z,99.90
2022-09-06T07:45:28.863Z,99.90
2022-09-06T07:48:00.387Z,99.90
2022-09-06T07:50:48.452Z,99.90
2022-09-06T07:53:27.759Z,99.90
2022-09-06T07:56:01.203Z,99.90
2022-09-06T07:58:30.961Z,99.90
2022-09-06T08:01:19.729Z,99.90
2022-09-06T08:03:50.883Z,99.90
2022-09-06T08:06:19.944Z,99.90
2022-09-06T08:11:27.328Z,99.90
2022-09-06T08:13:57.938Z,99.90
2022-09-06T08:16:29.485Z,99.90
2022-09-06T08:19:02.934Z,99.90
2022-09-06T08:21:33.574Z,99.90
2022-09-06T08:24:04.764Z,99.90
2022-09-06T08:26:36.765Z,99.90
2022-09-06T08:29:08.041Z,99.90
2022-09-06T08:31:38.548Z,99.90
2022-09-06T08:34:09.386Z,99.90
2022-09-06T08:36:38.943Z,99.90
2022-09-06T08:39:10.555Z,99.90
2022-09-06T08:41:48.314Z,99.90
2022-09-06T08:47:12.641Z,99.90
2022-09-06T08:49:46.421Z,99.90
2022-09-06T08:53:00.135Z,99.90
2022-09-06T08:55:39.347Z,99.90
2022-09-06T08:58:23.518Z,99.90
2022-09-06T09:00:58.972Z,99.90
2022-09-06T09:03:34.256Z,99.90
2022-09-06T09:06:06.344Z,99.90
2022-09-06T09:08:45.567Z,99.90
2022-09-06T09:11:19.425Z,99.90
2022-09-06T09:13:56.556Z,99.90
2022-09-06T09:16:26.214Z,99.90
2022-09-06T09:18:57.882Z,99.90
2022-09-06T09:21:31.061Z,99.90
2022-09-06T09:24:05.058Z,98.40
2022-09-06T09:26:40.393Z,96.70
2022-09-06T09:29:12.737Z,93.60
2022-09-06T09:31:44.671Z,86.50
2022-09-06T09:34:15.018Z,79.40
2022-09-06T09:39:37.923Z,75.60
2022-09-06T09:42:07.878Z,80.10
2022-09-06T09:44:38.790Z,79.00
2022-09-06T09:47:27.104Z,79.20
2022-09-06T09:49:56.684Z,75.30
2022-09-06T09:52:29.591Z,80.20
2022-09-06T09:55:02.301Z,77.40
2022-09-06T09:57:33.825Z,79.10
2022-09-06T10:00:04.536Z,79.50
2022-09-06T10:02:35.978Z,77.60
2022-09-06T10:05:10.449Z,81.90
2022-09-06T10:07:49.510Z,81.30
2022-09-06T10:10:25.964Z,82.40
2022-09-06T10:13:09.705Z,82.20
2022-09-06T10:15:40.856Z,79.50
2022-09-06T10:18:19.724Z,81.00
2022-09-06T10:20:55.844Z,74.10
2022-09-06T10:26:32.690Z,68.90
2022-09-06T10:29:07.400Z,66.40
2022-09-06T10:31:51.294Z,64.40
2022-09-06T10:34:53.011Z,64.80
2022-09-06T10:37:38.364Z,67.30
2022-09-06T10:40:11.486Z,68.30
2022-09-06T10:42:45.553Z,68.70
2022-09-06T10:45:25.991Z,67.20
2022-09-06T10:48:01.924Z,70.30
2022-09-06T10:50:40.011Z,70.90
2022-09-06T10:53:14.243Z,71.20
2022-09-06T10:55:50.081Z,73.90
2022-09-06T10:58:26.869Z,70.50
2022-09-06T11:00:57.672Z,69.70
2022-09-06T11:06:26.824Z,68.80
2022-09-06T11:09:04.347Z,64.90
2022-09-06T11:11:42.058Z,67.30
2022-09-06T11:14:15.050Z,60.20
2022-09-06T11:16:51.608Z,62.50
2022-09-06T11:19:25.642Z,59.90
2022-09-06T11:22:14.290Z,64.00
2022-09-06T11:25:02.358Z,55.30
2022-09-06T11:27:42.766Z,55.40
2022-09-06T11:30:17.586Z,56.10
2022-09-06T11:32:50.779Z,59.30
2022-09-06T11:35:25.742Z,61.30
2022-09-06T11:38:03.897Z,59.10
2022-09-06T11:40:42.066Z,58.90
2022-09-06T11:43:21.345Z,59.90
2022-09-06T11:45:52.861Z,57.90
2022-09-06T11:49:02.330Z,56.80
2022-09-06T11:51:38.240Z,59.60
2022-09-06T11:54:32.137Z,59.80
2022-09-06T11:57:11.881Z,62.40
2022-09-06T11:59:54.622Z,61.40
2022-09-06T12:02:42.414Z,59.70
2022-09-06T12:05:17.952Z,62.40
2022-09-06T12:08:36.145Z,56.70
2022-09-06T12:11:27.039Z,58.70
2022-09-06T12:14:04.972Z,60.60
2022-09-06T12:17:11.677Z,58.10
2022-09-06T12:19:45.904Z,57.40
2022-09-06T12:22:52.852Z,60.10
2022-09-06T12:25:59.712Z,58.10
2022-09-06T12:28:47.836Z,59.20
2022-09-06T12:31:40.331Z,61.70
2022-09-06T12:34:16.750Z,64.20
2022-09-06T12:37:03.312Z,62.70
2022-09-06T12:39:32.710Z,63.20
2022-09-06T12:42:04.328Z,63.40
2022-09-06T12:44:37.287Z,64.80
2022-09-06T12:47:13.212Z,62.60
2022-09-06T12:49:42.680Z,63.10
2022-09-06T12:52:16.327Z,62.20
2022-09-06T12:54:51.548Z,64.20
2022-09-06T12:57:27.643Z,63.10
2022-09-06T12:59:58.521Z,61.70
2022-09-06T13:02:35.693Z,60.40
2022-09-06T13:05:08.370Z,59.80
2022-09-06T13:07:44.971Z,59.70
2022-09-06T13:10:16.745Z,57.60
2022-09-06T13:12:49.555Z,56.30
2022-09-06T13:15:22.095Z,56.20
2022-09-06T13:17:51.673Z,57.00
2022-09-06T13:20:28.283Z,56.00
2022-09-06T13:23:11.463Z,60.30
2022-09-06T13:25:50.423Z,55.10
2022-09-06T13:28:28.569Z,55.90
2022-09-06T13:31:10.180Z,57.20
2022-09-06T13:33:42.591Z,55.90
2022-09-06T13:36:23.870Z,55.40
2022-09-06T13:38:56.328Z,55.50
2022-09-06T13:41:41.864Z,55.40
2022-09-06T13:44:29.859Z,54.80
2022-09-06T13:47:00.984Z,56.20
2022-09-06T13:49:30.997Z,56.60
2022-09-06T13:52:07.410Z,58.20
2022-09-06T13:54:38.814Z,58.80
2022-09-06T13:57:12.719Z,57.20
2022-09-06T13:59:43.650Z,55.00
2022-09-06T14:02:21.953Z,57.50
2022-09-06T14:04:52.287Z,59.10
2022-09-06T14:07:21.607Z,58.20
2022-09-06T14:09:52.634Z,57.30
2022-09-06T14:12:21.690Z,58.50
2022-09-06T14:14:50.555Z,61.20
2022-09-06T14:17:19.899Z,60.50
2022-09-06T14:19:50.785Z,60.00
2022-09-06T14:22:20.589Z,60.00
2022-09-06T14:24:50.190Z,58.30
2022-09-06T14:27:21.584Z,59.70
2022-09-06T14:30:00.717Z,60.50
2022-09-06T14:32:34.095Z,62.60
2022-09-06T14:35:11.492Z,61.70
2022-09-06T14:37:43.441Z,62.80
2022-09-06T14:40:18.750Z,63.30
2022-09-06T14:42:56.025Z,63.00
2022-09-06T14:45:28.049Z,63.70
2022-09-06T14:48:00.558Z,63.30
2022-09-06T14:50:32.362Z,64.10
2022-09-06T14:53:11.684Z,64.90
2022-09-06T14:55:50.340Z,64.40
2022-09-06T14:58:21.918Z,66.00
2022-09-06T15:00:51.126Z,64.90
2022-09-06T15:03:20.402Z,67.10
2022-09-06T15:05:50.041Z,67.00
2022-09-06T15:08:20.112Z,67.40
2022-09-06T15:10:54.902Z,68.10
2022-09-06T15:13:27.682Z,69.40
2022-09-06T15:15:57.734Z,66.60
2022-09-06T15:18:28.507Z,66.00
2022-09-06T15:20:58.113Z,65.10
2022-09-06T15:23:29.620Z,63.40
2022-09-06T15:25:58.853Z,62.30
2022-09-06T15:28:30.115Z,64.50
2022-09-06T15:31:00.121Z,65.30
2022-09-06T15:33:32.085Z,67.60
2022-09-06T15:36:06.672Z,66.80
2022-09-06T15:38:40.763Z,69.40
2022-09-06T15:41:12.327Z,69.40
2022-09-06T15:43:49.315Z,66.10
2022-09-06T15:46:21.412Z,67.80
2022-09-06T15:48:54.203Z,68.20
2022-09-06T15:51:24.072Z,69.60
2022-09-06T15:53:53.043Z,69.30
2022-09-06T15:56:22.749Z,68.90
2022-09-06T15:58:53.995Z,70.20
2022-09-06T16:01:28.536Z,70.40
2022-09-06T16:04:03.847Z,71.00
2022-09-06T16:06:35.247Z,72.40
2022-09-06T16:09:07.706Z,71.50
2022-09-06T16:11:37.334Z,72.70
2022-09-06T16:14:09.831Z,72.90
2022-09-06T16:16:41.200Z,74.30
2022-09-06T16:19:10.806Z,73.30
2022-09-06T16:21:42.242Z,73.20
2022-09-06T16:24:14.610Z,74.20
2022-09-06T16:26:48.299Z,75.30
2022-09-06T16:29:20.939Z,74.60
2022-09-06T16:31:54.100Z,75.10
2022-09-06T16:34:24.702Z,76.10
2022-09-06T16:37:08.329Z,76.90
2022-09-06T16:39:41.583Z,78.20
2022-09-06T16:42:13.806Z,77.40
2022-09-06T16:44:48.078Z,78.00
2022-09-06T16:47:21.772Z,78.40
2022-09-06T16:49:52.330Z,78.50
2022-09-06T16:52:23.893Z,79.20
2022-09-06T16:54:53.636Z,78.90
2022-09-06T16:57:27.876Z,78.50
2022-09-06T17:00:02.013Z,80.30
2022-09-06T17:02:33.224Z,78.50
2022-09-06T17:05:12.749Z,79.70
2022-09-06T17:07:47.414Z,78.90
2022-09-06T17:10:19.560Z,79.90
2022-09-06T17:12:49.925Z,80.60
2022-09-06T17:15:25.158Z,81.00
2022-09-06T17:18:00.429Z,80.50
2022-09-06T17:20:34.710Z,81.70
2022-09-06T17:23:04.786Z,81.40
2022-09-06T17:25:36.249Z,82.50
2022-09-06T17:28:06.360Z,82.30
2022-09-06T17:30:43.851Z,83.80
2022-09-06T17:33:17.202Z,84.00
2022-09-06T17:35:48.093Z,85.40
2022-09-06T17:38:19.901Z,85.30
2022-09-06T17:41:05.009Z,86.20
2022-09-06T17:43:40.037Z,86.70
2022-09-06T17:46:16.409Z,86.70
2022-09-06T17:48:46.186Z,87.10
2022-09-06T17:51:16.313Z,88.10
2022-09-06T17:53:48.045Z,87.80
2022-09-06T17:56:19.679Z,88.90
2022-09-06T17:58:55.957Z,88.80
2022-09-06T18:01:32.165Z,88.90
2022-09-06T18:04:02.667Z,89.20
2022-09-06T18:06:36.672Z,89.20
2022-09-06T18:09:15.458Z,89.70
2022-09-06T18:11:49.094Z,90.00
2022-09-06T18:14:22.544Z,90.20
2022-09-06T18:16:56.352Z,90.70
2022-09-06T18:19:26.888Z,91.10
2022-09-06T18:21:58.631Z,90.90
2022-09-06T18:24:28.896Z,91.20
2022-09-06T18:26:58.398Z,91.30
2022-09-06T18:29:28.665Z,91.20
2022-09-06T18:32:01.192Z,91.50
2022-09-06T18:34:32.337Z,92.50
2022-09-06T18:37:02.835Z,92.40
2022-09-06T18:39:32.475Z,92.40
2022-09-06T18:42:04.095Z,92.60
2022-09-06T18:44:39.000Z,93.70
2022-09-06T18:47:13.647Z,92.40
2022-09-06T18:49:44.558Z,92.40
2022-09-06T18:52:15.778Z,92.60
2022-09-06T18:54:46.157Z,92.40
2022-09-06T18:57:17.672Z,92.40
2022-09-06T18:59:49.406Z,92.50
2022-09-06T19:02:24.161Z,92.40
2022-09-06T19:04:59.978Z,92.20
2022-09-06T19:07:30.643Z,92.20
2022-09-06T19:10:02.549Z,92.20
2022-09-06T19:12:35.283Z,92.40
2022-09-06T19:15:13.203Z,92.80
2022-09-06T19:17:46.203Z,92.80
2022-09-06T19:20:17.000Z,92.50
2022-09-06T19:22:51.798Z,92.80
2022-09-06T19:25:26.052Z,92.60
2022-09-06T19:27:58.416Z,92.50
2022-09-06T19:30:31.723Z,92.90
2022-09-06T19:33:07.497Z,92.50
2022-09-06T19:35:50.997Z,92.00
2022-09-06T19:38:42.072Z,92.10
2022-09-06T19:41:20.926Z,91.90
2022-09-06T19:43:53.533Z,91.80
2022-09-06T19:46:24.719Z,91.90
2022-09-06T19:49:00.457Z,92.40
2022-09-06T19:51:31.470Z,92.20
2022-09-06T19:54:01.867Z,92.90
2022-09-06T19:56:37.442Z,92.90
2022-09-06T19:59:11.670Z,92.60
2022-09-06T20:01:43.623Z,92.80
2022-09-06T20:04:16.265Z,93.10
2022-09-06T20:06:47.216Z,92.90
2022-09-06T20:09:17.708Z,93.00
2022-09-06T20:11:47.313Z,92.80
2022-09-06T20:14:18.983Z,93.10
2022-09-06T20:16:49.371Z,93.40
2022-09-06T20:19:21.409Z,93.40
2022-09-06T20:21:52.144Z,94.40
2022-09-06T20:24:23.261Z,94.10
2022-09-06T20:26:55.869Z,94.00
2022-09-06T20:29:26.977Z,94.10
2022-09-06T20:31:57.115Z,94.00
2022-09-06T20:34:29.807Z,94.20
2022-09-06T20:37:01.069Z,94.50
2022-09-06T20:39:30.815Z,94.60
2022-09-06T20:42:01.082Z,95.30
2022-09-06T20:44:31.652Z,95.40
2022-09-06T20:47:01.768Z,95.40
2022-09-06T20:49:32.974Z,95.50
2022-09-06T20:52:02.580Z,95.50
2022-09-06T20:54:33.777Z,95.90
2022-09-06T20:57:03.357Z,96.20
2022-09-06T20:59:32.908Z,96.50
2022-09-06T21:02:03.019Z,97.00
2022-09-06T21:04:34.679Z,97.50
2022-09-06T21:07:04.229Z,97.80
2022-09-06T21:09:34.081Z,98.60
2022-09-06T21:12:06.125Z,99.30
2022-09-06T21:14:38.567Z,99.00
2022-09-06T21:17:13.888Z,98.90
2022-09-06T21:19:46.828Z,99.10
2022-09-06T21:22:19.582Z,99.40
2022-09-06T21:24:50.351Z,99.80
2022-09-06T21:27:21.068Z,99.90
2022-09-06T21:29:52.263Z,99.90
2022-09-06T21:32:25.172Z,99.90
2022-09-06T21:34:59.876Z,99.90
2022-09-06T21:37:30.296Z,99.90
2022-09-06T21:40:00.993Z,99.90
2022-09-06T21:42:33.687Z,99.90
2022-09-06T21:45:03.824Z,99.90
2022-09-06T21:47:37.873Z,99.90
2022-09-06T21:50:10.884Z,99.90
2022-09-06T21:52:40.476Z,99.90
2022-09-06T21:55:14.962Z,99.90
2022-09-06T21:57:46.159Z,99.90
2022-09-06T22:00:20.805Z,99.90
2022-09-06T22:02:55.009Z,99.90
2022-09-06T22:05:26.828Z,99.90
2022-09-06T22:07:58.361Z,99.90
2022-09-06T22:10:28.707Z,99.90
2022-09-06T22:13:01.903Z,99.90
2022-09-06T22:15:32.446Z,99.90
2022-09-06T22:18:07.676Z,99.90
2022-09-06T22:20:39.807Z,99.90
2022-09-06T22:23:11.136Z,99.90
2022-09-06T22:25:43.050Z,99.90
2022-09-06T22:28:13.296Z,99.90
2022-09-06T22:30:47.368Z,99.90
2022-09-06T22:33:17.961Z,99.90
2022-09-06T22:35:49.727Z,99.90
2022-09-06T22:38:19.866Z,99.90
2022-09-06T22:40:50.011Z,99.90
2022-09-06T22:43:20.307Z,99.90
2022-09-06T22:45:52.106Z,99.90
2022-09-06T22:48:23.323Z,99.90
2022-09-06T22:50:56.345Z,99.90
2022-09-06T22:53:26.692Z,99.90
2022-09-06T22:55:56.611Z,99.90
2022-09-06T22:58:31.574Z,99.90
2022-09-06T23:01:10.045Z,99.90
2022-09-06T23:03:41.381Z,99.90
2022-09-06T23:06:14.591Z,99.90
2022-09-06T23:08:45.587Z,99.90
2022-09-06T23:11:20.856Z,99.90
2022-09-06T23:13:52.193Z,99.90
2022-09-06T23:16:22.361Z,99.90
2022-09-06T23:18:55.768Z,99.90
2022-09-06T23:21:28.558Z,99.90
2022-09-06T23:24:03.028Z,99.90
2022-09-06T23:26:36.245Z,99.90
2022-09-06T23:29:06.621Z,99.90
2022-09-06T23:31:37.488Z,99.90
2022-09-06T23:34:07.773Z,99.90
2022-09-06T23:36:39.222Z,99.90
2022-09-06T23:39:10.592Z,99.90
2022-09-06T23:41:40.764Z,99.90
2022-09-06T23:44:11.068Z,99.90
2022-09-06T23:46:41.227Z,99.90
2022-09-06T23:49:11.021Z,99.90
2022-09-06T23:51:43.033Z,99.90
2022-09-06T23:54:12.949Z,99.90
2022-09-06T23:56:43.100Z,99.90
2022-09-06T23:59:13.953Z,99.90
